Morris, Connecticut
Current Conditions -  °F | °C
As of 10:50 AM on Wednesday 26 Nov 2014 (Local Time) from KOXC Reporting Station
Light Snow Light Snow  
Wind Chill: 28°   Ceiling: 300
Heat Index: 34°   Visibility: 0.75mi
Dew Point: 27°   Wind: 7mph
Humidity: 75%   Direction: 50°NE
Pressure: 30.12"   Gusts: NA
Location:  41.68°N, 73.2°W
Report Text: KOXC 261550Z 05006KT 3/4SM -SN BR OVC003 01/M03 A3012
Loading
Personal Weather Stations






























Interactive Weather Map New forecast layout! Learn more

10-Day Weather Forecast

Advertisements
Track Severe Weather on mobile